METAR Data
IDs: Format: Raw Decoded Include TAF

Data at: 2229 UTC 20 Nov 2018

KCZT 202215Z AUTO 00000KT 10SM CLR 17/05 A3025 RMK AO2
KCZT 202155Z AUTO 00000KT 10SM CLR 17/05 A3025 RMK AO2
KCZT 202135Z AUTO 36004KT 10SM CLR 17/05 A3025 RMK AO2
KCZT 202115Z AUTO 03003KT 10SM CLR 17/05 A3026 RMK AO2
KCZT 202055Z AUTO 00000KT 10SM SCT042 17/05 A3025 RMK AO2
KCZT 202035Z AUTO 01004KT 10SM SCT042 17/04 A3025 RMK AO2
KCZT 202015Z AUTO 00000KT 10SM OVC042 17/04 A3027 RMK AO2
KCZT 201955Z AUTO 00000KT 10SM BKN042 16/04 A3028 RMK AO2
KCZT 201935Z AUTO 00000KT 10SM BKN042 16/03 A3028 RMK AO2
KCZT 201915Z AUTO 08007KT 10SM OVC042 16/03 A3030 RMK AO2
KCZT 201855Z AUTO 11005KT 10SM OVC042 16/03 A3031 RMK AO2
KCZT 201835Z AUTO 05006KT 10SM OVC042 15/03 A3033 RMK AO2
KCZT 201815Z AUTO 05005KT 10SM OVC042 15/03 A3035 RMK AO2
KCZT 201755Z AUTO 06005KT 10SM OVC042 15/03 A3035 RMK AO2
KCZT 201735Z AUTO 00000KT 10SM OVC042 14/03 A3036 RMK AO2
KCZT 201715Z AUTO 08005KT 10SM OVC040 14/03 A3037 RMK AO2
KCZT 201655Z AUTO 08006KT 10SM OVC040 14/03 A3037 RMK AO2
KCZT 201635Z AUTO 07005KT 10SM OVC040 13/04 A3037 RMK AO2
KCZT 201615Z AUTO 08004KT 10SM OVC040 13/05 A3037 RMK AO2
KCZT 201555Z AUTO 06008KT 10SM OVC038 13/05 A3037 RMK AO2
KCZT 201535Z AUTO 06006KT 10SM OVC038 13/07 A3037 RMK AO2
KCZT 201515Z AUTO 03007KT 10SM OVC040 13/07 A3036 RMK AO2
KCZT 201455Z AUTO 03004KT 10SM OVC038 12/08 A3036 RMK AO2
KCZT 201435Z AUTO 01006KT 10SM OVC036 12/09 A3035 RMK AO2
KCZT 201415Z AUTO 35003KT 10SM OVC034 12/09 A3034 RMK AO2
KCZT 201355Z AUTO 00000KT 10SM OVC034 12/10 A3033 RMK AO2
KCZT 201335Z AUTO 35003KT 10SM OVC034 12/10 A3032 RMK AO2
KCZT 201315Z AUTO 00000KT 10SM OVC032 12/10 A3031 RMK AO2
KCZT 201255Z AUTO 33003KT 10SM OVC028 12/10 A3030 RMK AO2
KCZT 201235Z AUTO 10SM OVC026 12/10 A3030 RMK AO2
KCZT 201215Z AUTO 10SM OVC028 12/10 A3029 RMK AO2
KCZT 201155Z AUTO 00000KT 10SM OVC028 12/10 A3028 RMK AO2
KCZT 201135Z AUTO 00000KT 10SM OVC028 12/10 A3027 RMK AO2
KCZT 201115Z AUTO 00000KT 10SM OVC031 12/10 A3026 RMK AO2
KCZT 201055Z AUTO 00000KT 10SM OVC029 12/10 A3026 RMK AO2
KCZT 201035Z AUTO 00000KT 10SM OVC027 12/10 A3026 RMK AO2
KCZT 201015Z AUTO 00000KT 10SM OVC027 12/10 A3025 RMK AO2
KCZT 200955Z AUTO 00000KT 10SM OVC023 12/10 A3025 RMK AO2
KCZT 200935Z AUTO 00000KT 10SM OVC025 12/10 A3025 RMK AO2
KCZT 200915Z AUTO 00000KT 10SM OVC025 12/10 A3025 RMK AO2
KCZT 200855Z AUTO 00000KT 10SM OVC025 12/08 A3025 RMK AO2
KCZT 200835Z AUTO 09004KT 10SM OVC021 12/09 A3025 RMK AO2
KCZT 200815Z AUTO 09003KT 10SM OVC021 12/09 A3025 RMK AO2
KCZT 200755Z AUTO 07003KT 10SM OVC019 12/09 A3025 RMK AO2
KCZT 200735Z AUTO 00000KT 10SM OVC019 12/09 A3025 RMK AO2
KCZT 200715Z AUTO 03004KT 10SM OVC019 12/08 A3025 RMK AO2
KCZT 200655Z AUTO 06003KT 10SM OVC019 12/08 A3025 RMK AO2
KCZT 200635Z AUTO 03003KT 10SM OVC019 12/08 A3025 RMK AO2
KCZT 200620Z AUTO 00000KT 10SM OVC019 12/08 A3025 RMK AO2
KCZT 200555Z AUTO 00000KT 10SM OVC019 12/09 A3025 RMK AO2
KCZT 200535Z AUTO 00000KT 10SM BKN019 OVC024 12/08 A3024 RMK AO2
KCZT 200515Z AUTO 00000KT 10SM OVC026 12/08 A3025 RMK AO2
KCZT 200455Z AUTO 00000KT 10SM OVC024 12/08 A3024 RMK AO2
KCZT 200435Z AUTO 16003KT 10SM OVC020 12/08 A3024 RMK AO2
KCZT 200415Z AUTO 13003KT 10SM OVC020 12/08 A3023 RMK AO2
KCZT 200355Z AUTO 00000KT 10SM OVC018 12/08 A3023 RMK AO2
KCZT 200335Z AUTO 00000KT 10SM OVC018 12/08 A3022 RMK AO2
KCZT 200315Z AUTO 11003KT 10SM OVC020 12/08 A3022 RMK AO2
KCZT 200255Z AUTO 00000KT 10SM OVC022 12/08 A3020 RMK AO2
KCZT 200235Z AUTO 13003KT 10SM OVC022 12/08 A3020 RMK AO2
KCZT 200215Z AUTO 13004KT 10SM OVC022 12/09 A3019 RMK AO2
KCZT 200155Z AUTO 11004KT 10SM OVC024 12/09 A3018 RMK AO2
KCZT 200135Z AUTO 12003KT 10SM OVC024 12/09 A3018 RMK AO2
KCZT 200115Z AUTO 10003KT 10SM OVC024 13/09 A3017 RMK AO2
KCZT 200055Z AUTO 00000KT 10SM OVC024 13/10 A3016 RMK AO2
KCZT 200035Z AUTO 11004KT 10SM OVC022 13/09 A3015 RMK AO2
KCZT 200015Z AUTO 12004KT 10SM OVC022 13/09 A3015 RMK AO2
KCZT 192355Z AUTO 11003KT 10SM OVC022 13/09 A3014 RMK AO2
KCZT 192335Z AUTO 00000KT 10SM OVC022 14/10 A3014 RMK AO2
KCZT 192315Z AUTO 00000KT 10SM OVC022 14/10 A3013 RMK AO2
KCZT 192255Z AUTO 02003KT 10SM OVC022 14/09 A3013 RMK AO2
KCZT 192235Z AUTO 04003KT 10SM OVC022 15/10 A3012 RMK AO2
KCZT 192215Z AUTO 08003KT 10SM OVC022 15/09 A3012 RMK AO2
KCZT 192155Z AUTO 08003KT 10SM OVC022 15/09 A3012 RMK AO2
KCZT 192135Z AUTO 06003KT 10SM OVC022 15/09 A3012 RMK AO2
KCZT 192115Z AUTO 04004KT 10SM OVC020 15/10 A3012 RMK AO2
KCZT 192055Z AUTO 02003KT 10SM OVC020 14/09 A3013 RMK AO2
KCZT 192035Z AUTO 00000KT 10SM OVC018 14/09 A3013 RMK AO2
KCZT 192015Z AUTO 03003KT 10SM OVC018 13/09 A3013 RMK AO2
KCZT 191955Z AUTO 00000KT 10SM OVC018 14/09 A3014 RMK AO2
KCZT 191935Z AUTO 05004KT 10SM OVC016 13/09 A3014 RMK AO2
KCZT 191915Z AUTO 03004KT 10SM OVC016 13/09 A3015 RMK AO2
KCZT 191855Z AUTO 00000KT 10SM OVC016 13/09 A3017 RMK AO2
KCZT 191835Z AUTO 00000KT 10SM OVC016 13/09 A3018 RMK AO2
KCZT 191815Z AUTO 00000KT 10SM OVC016 13/09 A3019 RMK AO2
KCZT 191755Z AUTO 00000KT 10SM OVC016 12/08 A3020 RMK AO2
KCZT 191735Z AUTO 00000KT 10SM OVC016 12/08 A3020 RMK AO2
KCZT 191715Z AUTO 00000KT 10SM OVC016 12/08 A3020 RMK AO2
KCZT 191655Z AUTO 07003KT 10SM OVC016 12/08 A3020 RMK AO2
KCZT 191635Z AUTO 03003KT 10SM OVC016 12/08 A3021 RMK AO2
KCZT 191615Z AUTO 00000KT 10SM OVC016 12/08 A3021 RMK AO2
KCZT 191555Z AUTO 00000KT 10SM OVC018 11/08 A3020 RMK AO2
KCZT 191535Z AUTO 05003KT 10SM OVC018 11/08 A3020 RMK AO2
KCZT 191515Z AUTO 07004KT 10SM OVC018 11/08 A3020 RMK AO2
KCZT 191455Z AUTO 07004KT 10SM OVC018 11/08 A3020 RMK AO2
KCZT 191435Z AUTO 08004KT 10SM OVC020 11/08 A3018 RMK AO2
KCZT 191415Z AUTO 00000KT 10SM OVC020 11/08 A3018 RMK AO2
KCZT 191355Z AUTO 00000KT 10SM OVC020 11/08 A3018 RMK AO2
KCZT 191335Z AUTO 00000KT 10SM OVC018 10/08 A3017 RMK AO2
KCZT 191315Z AUTO 00000KT 10SM OVC018 10/08 A3017 RMK AO2
KCZT 191255Z AUTO 00000KT 10SM OVC018 10/08 A3016 RMK AO2
KCZT 191235Z AUTO 00000KT 10SM OVC018 10/08 A3016 RMK AO2
KCZT 191215Z AUTO 00000KT 10SM OVC018 10/08 A3015 RMK AO2
KCZT 191155Z AUTO 07003KT 10SM OVC018 10/08 A3014 RMK AO2
KCZT 191135Z AUTO 00000KT 10SM OVC018 10/08 A3014 RMK AO2
KCZT 191115Z AUTO 00000KT 10SM OVC018 10/08 A3014 RMK AO2
KCZT 191055Z AUTO 00000KT 10SM OVC018 10/07 A3015 RMK AO2
KCZT 191035Z AUTO 00000KT 10SM OVC018 10/08 A3014 RMK AO2